Time;durP1;ratioP1;P1;durP2;ratioP2;P2;SDS_P1;SDS_P2;PMS_P1;PMS_P2;Temp;Humidity;BMP_temperature;BMP_pressure;BME280_temperature;BME280_humidity;BME280_pressure;Samples;Min_cycle;Max_cycle;Signal;HPM_P1;HPM_P2
2023/08/10 00:00:54;;;;;;;5.03;3.13;;;;;;;20.82;100.00;101455.88;2509054;23;20479;-63
2023/08/10 00:01:55;;;;;;;4.87;2.70;;;;;;;20.93;100.00;101473.00;2508791;23;20563;-65
2023/08/10 00:02:55;;;;;;;5.63;2.50;;;;;;;20.92;100.00;101485.53;2509469;23;20163;-64
2023/08/10 00:03:56;;;;;;;9.93;2.77;;;;;;;20.96;100.00;101488.97;2509344;23;20500;-64
2023/08/10 00:04:56;;;;;;;5.73;2.23;;;;;;;20.98;100.00;101474.41;2509331;23;20160;-63
2023/08/10 00:05:56;;;;;;;3.33;2.37;;;;;;;21.00;100.00;101480.31;2509191;23;20234;-64
2023/08/10 00:06:57;;;;;;;5.00;2.80;;;;;;;21.04;100.00;101483.72;2509394;23;20159;-64
2023/08/10 00:07:57;;;;;;;5.27;3.20;;;;;;;20.94;100.00;101465.34;2509571;23;20155;-63
2023/08/10 00:08:57;;;;;;;6.00;3.17;;;;;;;21.09;100.00;101486.63;2509391;23;20159;-63
2023/08/10 00:09:58;;;;;;;6.13;3.23;;;;;;;20.98;100.00;101489.25;2509420;23;20151;-63
2023/08/10 00:10:58;;;;;;;9.83;3.00;;;;;;;20.89;100.00;101492.16;2509546;23;20155;-64
2023/08/10 00:11:59;;;;;;;5.17;3.20;;;;;;;20.91;100.00;101491.66;2509613;23;20155;-63
2023/08/10 00:12:59;;;;;;;6.30;2.93;;;;;;;20.92;100.00;101488.38;2509587;23;20159;-64
2023/08/10 00:14:00;;;;;;;10.37;3.00;;;;;;;20.93;100.00;101480.69;2509415;23;20188;-64
2023/08/10 00:15:02;;;;;;;6.77;3.10;;;;;;;20.99;100.00;101487.22;2509378;23;20207;-64
2023/08/10 00:16:03;;;;;;;4.90;2.97;;;;;;;21.05;100.00;101486.06;2508972;23;20621;-63
2023/08/10 00:17:03;;;;;;;5.70;2.70;;;;;;;20.84;100.00;101455.38;2508348;23;20559;-64
2023/08/10 00:18:04;;;;;;;5.27;2.70;;;;;;;21.10;100.00;101493.06;2508717;23;20162;-63
2023/08/10 00:19:04;;;;;;;4.70;3.07;;;;;;;21.08;100.00;101490.72;2509251;23;20159;-64
2023/08/10 00:20:09;;;;;;;4.37;2.67;;;;;;;20.56;100.00;101415.41;2509257;23;20162;-64
2023/08/10 00:21:11;;;;;;;5.27;2.90;;;;;;;21.05;100.00;101480.44;2509348;23;20162;-65
2023/08/10 00:22:13;;;;;;;6.07;2.90;;;;;;;20.75;100.00;101439.34;2509369;23;20148;-64
2023/08/10 00:23:13;;;;;;;4.13;2.90;;;;;;;20.97;100.00;101473.59;2509421;23;20658;-64
2023/08/10 00:24:14;;;;;;;5.60;3.10;;;;;;;21.12;100.00;101496.16;2509138;23;20490;-64
2023/08/10 00:25:14;;;;;;;5.83;3.37;;;;;;;21.07;100.00;101496.84;2496694;23;20184;-64
2023/08/10 00:26:14;;;;;;;7.30;3.00;;;;;;;20.94;100.00;101485.06;2496276;23;20153;-65
2023/08/10 00:27:15;;;;;;;5.73;3.07;;;;;;;20.97;100.00;101492.53;2509090;23;20148;-64
2023/08/10 00:28:15;;;;;;;7.97;3.13;;;;;;;20.96;100.00;101494.59;2509323;23;20148;-63
2023/08/10 00:29:16;;;;;;;4.50;3.13;;;;;;;20.45;100.00;101412.38;2509482;23;20497;-64
2023/08/10 00:30:17;;;;;;;5.00;3.10;;;;;;;20.96;100.00;101486.13;2509414;23;20160;-64
2023/08/10 00:31:17;;;;;;;5.20;3.20;;;;;;;20.94;100.00;101483.00;2509620;23;20151;-64
2023/08/10 00:32:19;;;;;;;6.27;3.40;;;;;;;20.97;100.00;101481.28;2509613;23;20183;-63
2023/08/10 00:33:19;;;;;;;5.10;3.03;;;;;;;21.00;100.00;101480.31;2509550;23;20164;-63
2023/08/10 00:34:20;;;;;;;6.37;3.23;;;;;;;20.68;100.00;101436.88;2509176;23;20238;-63
2023/08/10 00:35:20;;;;;;;6.10;3.30;;;;;;;20.98;100.00;101489.25;2509447;23;20199;-63
2023/08/10 00:36:20;;;;;;;4.93;3.03;;;;;;;20.94;100.00;101485.06;2508949;23;20171;-64
2023/08/10 00:37:21;;;;;;;6.33;3.37;;;;;;;20.53;100.00;101426.84;2509148;23;20154;-64
2023/08/10 00:38:21;;;;;;;4.73;2.83;;;;;;;20.97;100.00;101484.88;2509377;23;20152;-64
2023/08/10 00:39:22;;;;;;;6.20;3.03;;;;;;;20.99;100.00;101481.56;2509425;23;20156;-64
2023/08/10 00:40:22;;;;;;;4.10;2.70;;;;;;;21.02;100.00;101487.03;2509186;23;20151;-63
2023/08/10 00:41:23;;;;;;;4.63;2.60;;;;;;;21.03;100.00;101482.94;2509581;23;20673;-63
2023/08/10 00:42:23;;;;;;;3.73;2.43;;;;;;;21.03;100.00;101482.94;2509379;23;20505;-64
2023/08/10 00:43:24;;;;;;;4.10;2.43;;;;;;;21.03;100.00;101476.53;2509375;23;20603;-64
2023/08/10 00:44:24;;;;;;;6.37;2.30;;;;;;;21.02;100.00;101474.97;2509293;23;20179;-63
2023/08/10 00:45:25;;;;;;;7.90;2.73;;;;;;;21.03;100.00;101480.13;2509541;23;20159;-63
2023/08/10 00:46:26;;;;;;;7.67;3.10;;;;;;;21.03;100.00;101485.75;2509205;23;20243;-64
2023/08/10 00:47:27;;;;;;;6.90;2.80;;;;;;;21.01;100.00;101477.03;2509305;23;20159;-64
2023/08/10 00:48:28;;;;;;;8.00;3.20;;;;;;;20.98;100.00;101468.75;2509122;23;20158;-63
2023/08/10 00:49:30;;;;;;;7.63;3.10;;;;;;;20.71;100.00;101450.00;2509078;23;20155;-63
2023/08/10 00:50:31;;;;;;;7.13;3.23;;;;;;;20.94;100.00;101474.56;2509199;23;20244;-63
2023/08/10 00:51:31;;;;;;;5.83;3.60;;;;;;;20.94;100.00;101474.56;2509165;23;20159;-63
2023/08/10 00:52:33;;;;;;;7.80;3.03;;;;;;;20.93;100.00;101487.09;2509272;23;20240;-63
2023/08/10 00:53:34;;;;;;;4.90;2.40;;;;;;;20.89;100.00;101474.44;2509025;23;20153;-64
2023/08/10 00:54:35;;;;;;;5.77;2.80;;;;;;;20.14;100.00;101358.50;2509253;23;20148;-63
2023/08/10 00:55:35;;;;;;;4.67;2.50;;;;;;;20.95;100.00;101481.78;2509443;23;20152;-63
2023/08/10 00:56:36;;;;;;;7.27;2.87;;;;;;;20.98;100.00;101474.41;2509179;23;20156;-65
2023/08/10 00:57:37;;;;;;;8.23;2.70;;;;;;;20.99;100.00;101476.69;2509199;23;20158;-64
2023/08/10 00:58:37;;;;;;;3.83;2.20;;;;;;;20.43;100.00;101383.16;2509224;23;20546;-63
2023/08/10 00:59:38;;;;;;;5.23;2.47;;;;;;;20.70;100.00;101428.75;2509253;23;20187;-63
2023/08/10 01:00:38;;;;;;;5.60;2.30;;;;;;;20.72;100.00;101431.84;2496564;23;20156;-63
2023/08/10 01:01:39;;;;;;;4.83;2.20;;;;;;;21.06;100.00;101472.75;2496581;23;20167;-63
2023/08/10 01:02:40;;;;;;;4.83;2.00;;;;;;;21.11;100.00;101474.88;2509255;23;20242;-64
2023/08/10 01:03:40;;;;;;;3.87;2.20;;;;;;;21.08;100.00;101470.22;2509227;23;20505;-64
2023/08/10 01:04:41;;;;;;;5.20;2.20;;;;;;;21.11;100.00;101469.25;2508414;23;20182;-64
2023/08/10 01:06:06;;;;;;;4.23;2.30;;;;;;;21.12;100.00;101477.22;2508787;23;20194;-63
2023/08/10 01:07:06;;;;;;;4.10;1.87;;;;;;;21.07;100.00;101477.09;2509308;23;20207;-63
2023/08/10 01:08:16;;;;;;;4.73;2.10;;;;;;;21.01;100.00;101473.41;2509134;23;20414;-63
2023/08/10 01:09:19;;;;;;;4.53;2.10;;;;;;;20.87;100.00;101474.91;2509019;23;20199;-63
2023/08/10 01:10:47;;;;;;;6.87;1.87;;;;;;;20.76;100.00;101476.72;2509094;23;20211;-63
2023/08/10 01:12:23;;;;;;;3.93;1.70;;;;;;;20.69;100.00;101475.06;2509233;23;20610;-63
2023/08/10 01:13:34;;;;;;;2.70;1.20;;;;;;;20.66;100.00;101478.06;2461488;24;20161;-63
2023/08/10 01:14:51;;;;;;;2.67;1.37;;;;;;;20.56;100.00;101460.47;2463260;23;20846;-63
2023/08/10 01:15:57;;;;;;;2.27;1.27;;;;;;;20.59;100.00;101500.97;2508964;23;20838;-63
2023/08/10 01:17:00;;;;;;;3.77;1.70;;;;;;;20.54;100.00;101479.88;2509111;23;20356;-63
2023/08/10 01:18:05;;;;;;;2.43;1.23;;;;;;;20.51;100.00;101486.47;2509127;23;20380;-64
2023/08/10 01:19:21;;;;;;;3.47;1.30;;;;;;;19.60;100.00;101353.19;2509043;23;20379;-63
2023/08/10 01:20:24;;;;;;;5.13;1.23;;;;;;;20.40;100.00;101482.63;2508781;23;20447;-64
2023/08/10 01:22:01;;;;;;;3.10;1.20;;;;;;;20.40;100.00;101491.88;2509201;23;20380;-64
2023/08/10 01:23:26;;;;;;;2.30;1.20;;;;;;;20.45;100.00;101496.03;2465008;23;20483;-65
2023/08/10 01:24:39;;;;;;;2.80;1.37;;;;;;;20.48;100.00;101501.53;2509117;23;20455;-63
2023/08/10 01:25:42;;;;;;;4.20;1.30;;;;;;;20.51;100.00;101499.75;2509075;23;20377;-63
2023/08/10 01:26:43;;;;;;;3.60;1.40;;;;;;;20.54;100.00;101504.44;2508716;23;20384;-63
2023/08/10 01:27:44;;;;;;;3.17;1.33;;;;;;;20.55;100.00;101509.59;2509129;23;20702;-63
2023/08/10 01:28:45;;;;;;;2.70;1.37;;;;;;;19.90;100.00;101404.75;2508789;23;20183;-63
2023/08/10 01:29:46;;;;;;;3.70;1.70;;;;;;;20.58;100.00;101514.25;2508859;23;20391;-63
2023/08/10 01:30:46;;;;;;;4.33;1.60;;;;;;;19.92;100.00;101422.72;2508262;23;20152;-62
2023/08/10 01:31:46;;;;;;;4.57;2.03;;;;;;;20.57;100.00;101515.53;2508990;23;20159;-62
2023/08/10 01:32:47;;;;;;;3.63;1.30;;;;;;;20.56;100.00;101527.25;2508729;23;20155;-63
2023/08/10 01:33:48;;;;;;;3.57;1.47;;;;;;;20.23;100.00;101473.84;2508556;23;20155;-62
2023/08/10 01:34:50;;;;;;;6.10;1.77;;;;;;;20.55;100.00;101520.88;2508777;23;20183;-63
2023/08/10 01:35:51;;;;;;;3.63;1.60;;;;;;;20.49;100.00;101522.78;2508559;23;20156;-63
2023/08/10 01:36:51;;;;;;;3.87;1.50;;;;;;;20.47;100.00;101516.06;2508866;23;20390;-63
2023/08/10 01:37:52;;;;;;;3.20;1.43;;;;;;;19.93;100.00;101441.16;2508934;23;20156;-63
2023/08/10 01:38:53;;;;;;;3.33;1.50;;;;;;;20.50;100.00;101523.53;2508868;23;20591;-64
2023/08/10 01:39:53;;;;;;;4.17;1.50;;;;;;;20.54;100.00;101522.13;2508652;23;20700;-63
2023/08/10 01:40:53;;;;;;;3.50;1.40;;;;;;;20.59;100.00;101513.03;2508213;23;20477;-64
2023/08/10 01:41:54;;;;;;;5.30;1.70;;;;;;;20.66;100.00;101514.66;2509026;23;20156;-63
2023/08/10 01:42:54;;;;;;;6.10;1.47;;;;;;;20.67;100.00;101513.44;2508862;23;20152;-63
2023/08/10 01:43:55;;;;;;;3.77;1.20;;;;;;;20.67;100.00;101517.00;2508951;23;20174;-64
2023/08/10 01:44:55;;;;;;;4.80;1.43;;;;;;;20.65;100.00;101510.31;2509097;23;20160;-63
2023/08/10 01:45:56;;;;;;;2.60;1.53;;;;;;;20.51;100.00;101492.09;2508497;23;20634;-62
2023/08/10 01:47:01;;;;;;;4.53;1.40;;;;;;;20.65;100.00;101507.50;2508918;23;20163;-63
2023/08/10 01:48:12;;;;;;;3.50;1.30;;;;;;;20.66;100.00;101509.84;2509056;23;20194;-63
2023/08/10 01:49:13;;;;;;;5.30;1.30;;;;;;;20.66;100.00;101503.41;2509085;23;20372;-63
2023/08/10 01:50:17;;;;;;;8.07;1.50;;;;;;;20.66;100.00;101504.19;2508311;23;20606;-63
2023/08/10 01:51:22;;;;;;;3.17;0.93;;;;;;;20.65;100.00;101501.84;2508591;23;20513;-63
2023/08/10 01:52:28;;;;;;;3.27;1.30;;;;;;;20.64;100.00;101500.31;2508866;23;20429;-63
2023/08/10 01:53:32;;;;;;;5.20;1.40;;;;;;;20.04;100.00;101409.66;2508833;23;20571;-63
2023/08/10 01:54:36;;;;;;;3.07;1.33;;;;;;;20.63;100.00;101502.31;2508791;23;20846;-62
2023/08/10 01:55:37;;;;;;;4.60;1.60;;;;;;;20.59;100.00;101498.94;2508962;23;20458;-63
2023/08/10 01:56:37;;;;;;;2.33;1.20;;;;;;;20.31;100.00;101468.63;2508689;23;20388;-63
2023/08/10 01:57:38;;;;;;;2.83;1.20;;;;;;;20.42;100.00;101486.53;2509025;23;20417;-63
2023/08/10 01:58:39;;;;;;;3.07;1.20;;;;;;;20.44;100.00;101500.13;2509065;23;20167;-62
2023/08/10 01:59:39;;;;;;;3.70;1.13;;;;;;;20.36;100.00;101504.56;2509149;23;20155;-63
2023/08/10 02:00:40;;;;;;;2.67;1.00;;;;;;;20.32;100.00;101506.78;2509005;23;20155;-63
2023/08/10 02:01:41;;;;;;;2.67;1.00;;;;;;;20.16;100.00;101505.13;2497134;23;20156;-63
2023/08/10 02:02:42;;;;;;;4.03;1.13;;;;;;;20.09;100.00;101507.53;2497157;23;20392;-63
2023/08/10 02:03:43;;;;;;;3.00;1.17;;;;;;;19.96;100.00;101502.06;2509960;23;20176;-63
2023/08/10 02:04:43;;;;;;;3.40;1.20;;;;;;;19.96;100.00;101504.13;2509806;23;20293;-64
2023/08/10 02:05:43;;;;;;;2.30;1.07;;;;;;;19.93;100.00;101499.44;2510059;23;20155;-63
2023/08/10 02:06:44;;;;;;;2.70;1.37;;;;;;;19.98;100.00;101496.78;2509605;23;20179;-63
2023/08/10 02:07:48;;;;;;;2.07;1.20;;;;;;;20.06;100.00;101494.38;2509881;23;20238;-63
2023/08/10 02:08:49;;;;;;;3.03;1.30;;;;;;;19.99;100.00;101489.09;2509840;23;20495;-62
2023/08/10 02:09:49;;;;;;;2.60;1.10;;;;;;;19.87;100.00;101473.22;2510182;23;20395;-63
2023/08/10 02:10:49;;;;;;;4.00;1.10;;;;;;;19.95;100.00;101482.88;2509365;23;20182;-63
2023/08/10 02:11:50;;;;;;;2.60;1.30;;;;;;;19.87;100.00;101482.44;2509729;23;20234;-63
2023/08/10 02:12:50;;;;;;;2.00;1.20;;;;;;;19.69;100.00;101476.88;2509734;23;20493;-63
2023/08/10 02:13:51;;;;;;;2.57;1.10;;;;;;;19.73;100.00;101485.13;2509711;23;20152;-63
2023/08/10 02:14:51;;;;;;;2.17;0.93;;;;;;;19.71;100.00;101479.22;2509740;23;20235;-63
2023/08/10 02:15:52;;;;;;;2.90;1.30;;;;;;;19.69;100.00;101464.84;2509696;23;20159;-64
2023/08/10 02:16:52;;;;;;;2.00;1.23;;;;;;;19.72;100.00;101480.78;2509579;23;20274;-62
2023/08/10 02:17:52;;;;;;;2.60;1.37;;;;;;;19.73;100.00;101463.44;2509837;23;20230;-63
2023/08/10 02:18:53;;;;;;;1.27;1.07;;;;;;;19.85;100.00;101484.19;2509910;23;20205;-62
2023/08/10 02:19:53;;;;;;;3.37;1.17;;;;;;;19.89;100.00;101479.13;2509970;23;20155;-64
2023/08/10 02:20:54;;;;;;;1.47;1.10;;;;;;;19.80;100.00;101477.16;2509712;23;20152;-63
2023/08/10 02:21:54;;;;;;;2.00;1.27;;;;;;;19.83;100.00;101476.22;2509626;23;20176;-63
2023/08/10 02:22:55;;;;;;;1.43;1.10;;;;;;;19.86;100.00;101472.44;2509632;23;20344;-63
2023/08/10 02:23:55;;;;;;;2.23;1.20;;;;;;;19.88;100.00;101481.19;2509754;23;20147;-63
2023/08/10 02:24:55;;;;;;;3.57;1.10;;;;;;;19.86;100.00;101468.84;2509788;23;20595;-63
2023/08/10 02:25:56;;;;;;;3.33;1.37;;;;;;;19.82;100.00;101482.31;2509570;23;20510;-63
2023/08/10 02:26:56;;;;;;;2.40;1.03;;;;;;;19.37;100.00;101415.78;2509897;23;20566;-63
2023/08/10 02:27:57;;;;;;;3.97;1.30;;;;;;;19.84;100.00;101488.22;2509847;23;20233;-63
2023/08/10 02:28:57;;;;;;;2.83;1.37;;;;;;;19.89;100.00;101490.38;2509756;23;20175;-63
2023/08/10 02:29:58;;;;;;;2.33;1.27;;;;;;;19.88;100.00;101495.25;2509696;23;20152;-63
2023/08/10 02:30:59;;;;;;;3.00;1.60;;;;;;;19.82;100.00;101502.00;2509743;23;20247;-63
2023/08/10 02:32:00;;;;;;;3.33;1.60;;;;;;;19.89;100.00;101515.69;2509552;23;20470;-64
2023/08/10 02:33:01;;;;;;;2.93;1.40;;;;;;;19.92;100.00;101514.75;2509737;23;20463;-63
2023/08/10 02:34:03;;;;;;;2.43;1.53;;;;;;;19.34;100.00;101422.34;2509465;23;20428;-62
2023/08/10 02:35:08;;;;;;;2.67;1.20;;;;;;;19.95;100.00;101520.22;2509666;23;20155;-62
2023/08/10 02:36:09;;;;;;;3.20;1.40;;;;;;;19.97;100.00;101528.97;2509346;23;20696;-62
2023/08/10 02:37:09;;;;;;;3.57;1.53;;;;;;;19.98;100.00;101522.09;2509741;23;20386;-63
2023/08/10 02:38:10;;;;;;;4.53;1.27;;;;;;;19.94;100.00;101524.28;2509698;23;20167;-62
2023/08/10 02:39:10;;;;;;;1.97;1.20;;;;;;;19.86;100.00;101519.47;2509475;23;20151;-63
2023/08/10 02:40:11;;;;;;;2.27;1.10;;;;;;;19.89;100.00;101524.13;2509378;23;20155;-62
2023/08/10 02:41:11;;;;;;;3.37;1.37;;;;;;;19.89;100.00;101533.38;2509891;23;20175;-62
2023/08/10 02:42:12;;;;;;;2.70;1.00;;;;;;;19.94;100.00;101523.50;2509284;23;20734;-62
2023/08/10 02:43:12;;;;;;;3.63;1.30;;;;;;;19.91;100.00;101530.09;2509741;23;20590;-62
2023/08/10 02:44:13;;;;;;;3.87;1.43;;;;;;;19.19;100.00;101435.47;2509640;23;20151;-62
2023/08/10 02:45:13;;;;;;;2.97;1.10;;;;;;;19.86;100.00;101525.09;2509866;23;20566;-62
2023/08/10 02:46:13;;;;;;;5.10;1.33;;;;;;;19.91;100.00;101541.34;2509774;23;20152;-63
2023/08/10 02:47:14;;;;;;;3.43;1.30;;;;;;;19.98;100.00;101536.16;2509786;23;20503;-63
2023/08/10 02:48:14;;;;;;;4.40;1.63;;;;;;;20.01;100.00;101545.69;2509863;23;20544;-62
2023/08/10 02:49:15;;;;;;;4.23;1.47;;;;;;;20.03;100.00;101551.59;2509808;23;20598;-63
2023/08/10 02:50:15;;;;;;;4.73;1.70;;;;;;;20.05;100.00;101549.13;2509586;23;20151;-63
2023/08/10 02:51:16;;;;;;;2.17;1.33;;;;;;;19.65;100.00;101498.75;2509687;23;20152;-62
2023/08/10 02:52:16;;;;;;;5.27;1.43;;;;;;;19.50;100.00;101491.47;2509736;23;20152;-63
2023/08/10 02:53:17;;;;;;;2.47;1.30;;;;;;;19.92;100.00;101557.75;2509528;23;20175;-62
2023/08/10 02:54:17;;;;;;;2.70;1.30;;;;;;;19.92;100.00;101557.75;2509075;23;20385;-62
2023/08/10 02:55:17;;;;;;;3.00;1.30;;;;;;;19.87;100.00;101557.59;2509780;23;20657;-62
2023/08/10 02:56:18;;;;;;;5.93;1.50;;;;;;;19.82;100.00;101556.22;2509476;23;20638;-62
2023/08/10 02:57:18;;;;;;;2.27;1.20;;;;;;;19.88;100.00;101565.56;2509815;23;20492;-63
2023/08/10 02:58:20;;;;;;;2.70;1.43;;;;;;;19.85;100.00;101563.69;2509645;23;20152;-63
2023/08/10 02:59:21;;;;;;;2.50;1.40;;;;;;;19.89;100.00;101569.94;2509920;23;20506;-63
2023/08/10 03:00:21;;;;;;;4.97;1.30;;;;;;;19.85;100.00;101569.31;2509494;23;20419;-62
2023/08/10 03:01:22;;;;;;;5.67;1.87;;;;;;;19.86;100.00;101578.56;2510031;23;20158;-63
2023/08/10 03:02:22;;;;;;;3.23;1.50;;;;;;;19.83;100.00;101582.31;2509615;23;20179;-62
2023/08/10 03:03:24;;;;;;;1.87;1.20;;;;;;;19.83;100.00;101585.91;2509753;23;20164;-63
2023/08/10 03:04:25;;;;;;;1.70;1.00;;;;;;;19.85;100.00;101589.00;2509682;23;20503;-63
2023/08/10 03:05:25;;;;;;;1.90;1.20;;;;;;;19.86;100.00;101573.69;2509854;23;20389;-63
2023/08/10 03:06:27;;;;;;;2.30;1.10;;;;;;;19.86;100.00;101581.38;2509710;23;20152;-62
2023/08/10 03:07:27;;;;;;;2.07;1.33;;;;;;;19.85;100.00;101582.63;2510060;23;20160;-63
2023/08/10 03:08:28;;;;;;;4.93;1.37;;;;;;;19.82;100.00;101581.53;2509895;23;20870;-62
2023/08/10 03:09:28;;;;;;;3.60;1.47;;;;;;;19.80;100.00;101575.59;2497187;23;20656;-64
2023/08/10 03:10:29;;;;;;;5.07;1.50;;;;;;;19.81;100.00;101576.38;2497222;23;20231;-62
2023/08/10 03:11:30;;;;;;;4.23;1.30;;;;;;;19.75;100.00;101579.03;2509776;23;20160;-64
2023/08/10 03:12:30;;;;;;;2.63;1.37;;;;;;;19.77;100.00;101576.56;2509175;23;20156;-62
2023/08/10 03:13:31;;;;;;;4.40;1.30;;;;;;;19.76;100.00;101571.41;2509881;23;20865;-64
2023/08/10 03:14:31;;;;;;;1.93;1.30;;;;;;;19.79;100.00;101576.84;2509493;23;20704;-63
2023/08/10 03:15:32;;;;;;;3.70;1.50;;;;;;;19.84;100.00;101569.78;2509699;23;20238;-64
2023/08/10 03:16:32;;;;;;;4.07;1.40;;;;;;;19.84;100.00;101579.03;2509541;23;20202;-63
2023/08/10 03:17:32;;;;;;;3.27;1.40;;;;;;;19.66;100.00;101555.78;2509830;23;20156;-63
2023/08/10 03:18:33;;;;;;;1.63;1.27;;;;;;;19.71;100.00;101578.41;2509848;23;20183;-63
2023/08/10 03:19:33;;;;;;;2.97;1.20;;;;;;;19.55;100.00;101573.16;2509791;23;20162;-63
2023/08/10 03:20:34;;;;;;;2.10;1.20;;;;;;;19.61;100.00;101582.53;2509719;23;20179;-63
2023/08/10 03:21:34;;;;;;;2.37;1.50;;;;;;;19.44;100.00;101572.84;2509681;23;20210;-63
2023/08/10 03:22:35;;;;;;;1.80;1.30;;;;;;;19.53;100.00;101592.53;2509748;23;20159;-63
2023/08/10 03:23:35;;;;;;;2.90;1.43;;;;;;;19.54;100.00;101591.28;2509822;23;20164;-63
2023/08/10 03:24:36;;;;;;;2.20;1.40;;;;;;;19.39;100.00;101581.91;2509722;23;20152;-63
2023/08/10 03:25:36;;;;;;;5.10;2.20;;;;;;;19.52;100.00;101585.34;2509690;23;20155;-63
2023/08/10 03:26:37;;;;;;;1.93;1.20;;;;;;;19.47;100.00;101585.97;2509537;23;20390;-63
2023/08/10 03:27:37;;;;;;;2.57;1.47;;;;;;;19.45;100.00;101582.84;2509685;23;20238;-63
2023/08/10 03:28:38;;;;;;;4.67;1.40;;;;;;;19.47;100.00;101583.16;2509737;23;20155;-64
2023/08/10 03:29:38;;;;;;;3.40;1.60;;;;;;;19.43;100.00;101579.72;2509656;23;20174;-64
2023/08/10 03:30:40;;;;;;;1.53;1.30;;;;;;;19.40;100.00;101574.28;2509517;23;20218;-64
2023/08/10 03:31:41;;;;;;;1.90;1.20;;;;;;;19.38;100.00;101580.34;2509683;23;20570;-63
2023/08/10 03:32:41;;;;;;;2.17;1.40;;;;;;;19.37;100.00;101573.19;2509850;23;20414;-64
2023/08/10 03:33:42;;;;;;;2.20;1.23;;;;;;;19.39;100.00;101579.09;2509698;23;20155;-65
2023/08/10 03:34:42;;;;;;;1.33;1.10;;;;;;;19.32;100.00;101561.78;2509465;23;20606;-64
2023/08/10 03:35:43;;;;;;;3.37;1.43;;;;;;;19.47;100.00;101580.34;2509691;23;20234;-63
2023/08/10 03:36:43;;;;;;;2.03;1.30;;;;;;;19.44;100.00;101583.34;2509482;23;20158;-64
2023/08/10 03:37:43;;;;;;;1.60;1.30;;;;;;;19.45;100.00;101577.22;2509800;23;20191;-63
2023/08/10 03:38:44;;;;;;;2.83;1.43;;;;;;;19.48;100.00;101583.94;2509675;23;20158;-64
2023/08/10 03:39:44;;;;;;;2.27;1.20;;;;;;;19.47;100.00;101576.75;2509846;23;20239;-64
2023/08/10 03:40:45;;;;;;;1.53;1.30;;;;;;;19.48;100.00;101583.94;2509409;23;20156;-63
2023/08/10 03:41:45;;;;;;;1.90;1.20;;;;;;;19.51;100.00;101574.56;2509851;23;20159;-64
2023/08/10 03:42:46;;;;;;;2.57;1.47;;;;;;;19.50;100.00;101581.44;2509731;23;20156;-63
2023/08/10 03:43:46;;;;;;;1.50;1.30;;;;;;;19.44;100.00;101564.41;2509628;23;20155;-63
2023/08/10 03:44:47;;;;;;;4.80;1.47;;;;;;;19.55;100.00;101578.00;2509659;23;20158;-64
2023/08/10 03:45:47;;;;;;;4.23;1.50;;;;;;;19.39;100.00;101542.56;2509627;23;20160;-64
2023/08/10 03:46:48;;;;;;;2.90;1.33;;;;;;;19.61;100.00;101588.16;2509323;23;20152;-63
2023/08/10 03:47:48;;;;;;;1.87;1.20;;;;;;;19.60;100.00;101588.63;2509616;23;20159;-63
2023/08/10 03:48:49;;;;;;;2.17;1.33;;;;;;;19.43;100.00;101564.88;2509663;23;20159;-64
2023/08/10 03:49:49;;;;;;;3.10;1.77;;;;;;;19.57;100.00;101589.53;2509634;23;20194;-64
2023/08/10 03:50:50;;;;;;;2.63;1.50;;;;;;;19.57;100.00;101593.16;2509573;23;20234;-64
2023/08/10 03:51:50;;;;;;;2.87;1.30;;;;;;;19.54;100.00;101593.31;2509572;23;20214;-63
2023/08/10 03:52:51;;;;;;;3.87;1.50;;;;;;;19.60;100.00;101600.63;2509694;23;20156;-64
2023/08/10 03:53:51;;;;;;;3.27;1.50;;;;;;;19.62;100.00;101602.97;2509277;23;20243;-64
2023/08/10 03:54:52;;;;;;;3.63;1.50;;;;;;;19.58;100.00;101600.34;2509604;23;20159;-64
2023/08/10 03:55:52;;;;;;;3.33;1.60;;;;;;;19.56;100.00;101596.44;2496384;23;20187;-63
2023/08/10 03:56:53;;;;;;;4.13;1.53;;;;;;;19.45;100.00;101593.31;2496866;23;20184;-64
2023/08/10 03:57:53;;;;;;;1.70;1.50;;;;;;;19.46;100.00;101597.69;2509372;23;20154;-63
2023/08/10 03:58:54;;;;;;;2.43;1.60;;;;;;;19.50;100.00;101601.13;2509725;23;20159;-64
2023/08/10 03:59:54;;;;;;;2.27;1.63;;;;;;;19.54;100.00;101596.91;2509597;23;20160;-63
2023/08/10 04:00:54;;;;;;;2.70;1.70;;;;;;;19.51;100.00;101580.19;2509527;23;20211;-64
2023/08/10 04:01:55;;;;;;;2.37;1.70;;;;;;;19.64;100.00;101606.09;2509736;23;20159;-64
2023/08/10 04:02:55;;;;;;;2.57;1.57;;;;;;;19.66;100.00;101604.38;2509624;23;20214;-63
2023/08/10 04:03:56;;;;;;;3.33;1.60;;;;;;;19.67;100.00;101600.31;2509472;23;20282;-64
2023/08/10 04:04:56;;;;;;;2.07;1.47;;;;;;;19.62;100.00;101594.53;2509651;23;20174;-64
2023/08/10 04:05:56;;;;;;;3.67;1.67;;;;;;;19.69;100.00;101605.44;2509483;23;20187;-64
2023/08/10 04:06:57;;;;;;;2.40;1.40;;;;;;;19.64;100.00;101589.22;2509517;23;20607;-64
2023/08/10 04:07:57;;;;;;;3.43;1.80;;;;;;;19.78;100.00;101606.22;2509510;23;20548;-64
2023/08/10 04:08:58;;;;;;;2.10;1.63;;;;;;;19.83;100.00;101608.41;2509626;23;20181;-64
2023/08/10 04:10:00;;;;;;;2.80;1.87;;;;;;;19.86;100.00;101610.25;2509389;23;20255;-63
2023/08/10 04:11:00;;;;;;;2.93;1.70;;;;;;;19.88;100.00;101612.59;2509657;23;20156;-64
2023/08/10 04:12:01;;;;;;;3.73;1.70;;;;;;;19.85;100.00;101607.94;2509535;23;20443;-64
2023/08/10 04:13:02;;;;;;;2.63;1.87;;;;;;;19.91;100.00;101615.25;2509628;23;20194;-64
2023/08/10 04:14:02;;;;;;;2.40;1.73;;;;;;;19.93;100.00;101618.38;2509552;23;20199;-63
2023/08/10 04:15:06;;;;;;;4.23;1.80;;;;;;;19.29;100.00;101524.16;2509575;23;20395;-63
2023/08/10 04:16:06;;;;;;;4.23;2.03;;;;;;;19.97;100.00;101621.03;2509461;23;20156;-64
2023/08/10 04:17:07;;;;;;;2.80;1.70;;;;;;;19.97;100.00;101619.00;2509537;23;20391;-64
2023/08/10 04:18:07;;;;;;;2.03;1.57;;;;;;;19.97;100.00;101621.81;2496787;23;20533;-63
2023/08/10 04:19:08;;;;;;;2.00;1.67;;;;;;;20.01;100.00;101618.84;2496911;23;20212;-64
2023/08/10 04:20:09;;;;;;;3.23;1.97;;;;;;;19.60;100.00;101550.00;2509506;23;20152;-64
2023/08/10 04:21:09;;;;;;;6.13;2.20;;;;;;;19.97;100.00;101606.97;2509487;23;20152;-64
2023/08/10 04:22:10;;;;;;;3.80;1.90;;;;;;;20.05;100.00;101616.66;2509709;23;20175;-63
2023/08/10 04:23:10;;;;;;;2.63;1.93;;;;;;;20.04;100.00;101615.84;2509438;23;20191;-64
2023/08/10 04:24:11;;;;;;;4.00;2.50;;;;;;;20.04;100.00;101620.69;2509511;23;20151;-64
2023/08/10 04:25:11;;;;;;;3.00;2.53;;;;;;;20.08;100.00;101622.13;2509595;23;20148;-63
2023/08/10 04:26:12;;;;;;;4.83;2.27;;;;;;;19.98;100.00;101589.63;2509445;23;20227;-64
2023/08/10 04:27:12;;;;;;;5.27;2.13;;;;;;;20.05;100.00;101617.41;2509598;23;20148;-63
2023/08/10 04:28:13;;;;;;;3.70;1.97;;;;;;;20.01;100.00;101624.47;2509484;23;20597;-64
2023/08/10 04:29:13;;;;;;;2.63;1.93;;;;;;;20.09;100.00;101620.06;2509514;23;20504;-64
2023/08/10 04:30:14;;;;;;;3.57;2.07;;;;;;;20.06;100.00;101618.97;2509354;23;20159;-63
2023/08/10 04:31:14;;;;;;;2.70;1.90;;;;;;;20.10;100.00;101624.44;2509529;23;20560;-64
2023/08/10 04:32:14;;;;;;;2.87;1.80;;;;;;;20.13;100.00;101617.88;2509457;23;20227;-64
2023/08/10 04:33:15;;;;;;;5.73;2.00;;;;;;;20.15;100.00;101624.59;2509513;23;20510;-64
2023/08/10 04:34:15;;;;;;;4.30;2.00;;;;;;;20.17;100.00;101621.31;2509455;23;20178;-63
2023/08/10 04:35:16;;;;;;;2.70;1.90;;;;;;;20.17;100.00;101618.50;2509543;23;20239;-63
2023/08/10 04:36:17;;;;;;;3.77;1.77;;;;;;;20.14;100.00;101613.81;2509176;23;20211;-63
2023/08/10 04:37:17;;;;;;;3.37;1.50;;;;;;;20.06;100.00;101615.38;2509536;23;20181;-64
2023/08/10 04:38:18;;;;;;;2.17;1.37;;;;;;;19.89;100.00;101625.41;2509357;23;20206;-64
2023/08/10 04:39:18;;;;;;;3.13;1.50;;;;;;;19.86;100.00;101612.31;2509290;23;20179;-64
2023/08/10 04:40:20;;;;;;;2.20;1.57;;;;;;;19.48;100.00;101567.06;2509324;23;20609;-64
2023/08/10 04:41:20;;;;;;;2.23;1.53;;;;;;;19.78;100.00;101611.06;2509394;23;20718;-64
2023/08/10 04:42:21;;;;;;;3.37;1.60;;;;;;;19.63;100.00;101596.88;2509485;23;20769;-63
2023/08/10 04:43:21;;;;;;;2.77;1.70;;;;;;;19.80;100.00;101617.78;2509434;23;20198;-64